createdAt,value
2018-12-02T00:02:20.032Z,191.93
2018-12-02T00:04:53.354Z,187.77
2018-12-02T00:07:42.214Z,177.23
2018-12-02T00:10:21.682Z,190.13
2018-12-02T00:12:54.250Z,169.83
2018-12-02T00:15:30.930Z,174.87
2018-12-02T00:18:03.999Z,179.20
2018-12-02T00:20:36.760Z,187.13
2018-12-02T00:23:10.379Z,189.53
2018-12-02T00:25:43.697Z,187.57
2018-12-02T00:28:16.107Z,173.80
2018-12-02T00:30:48.639Z,183.07
2018-12-02T00:33:21.037Z,193.53
2018-12-02T00:35:53.538Z,191.73
2018-12-02T00:38:26.029Z,202.33
2018-12-02T00:40:58.533Z,209.03
2018-12-02T00:43:30.960Z,191.93
2018-12-02T00:46:03.425Z,203.90
2018-12-02T00:48:35.934Z,197.10
2018-12-02T00:51:08.595Z,202.57
2018-12-02T00:53:41.015Z,197.83
2018-12-02T00:56:10.212Z,218.33
2018-12-02T00:58:42.732Z,197.17
2018-12-02T01:01:15.180Z,207.53
2018-12-02T01:03:47.602Z,219.33
2018-12-02T01:06:20.035Z,206.30
2018-12-02T01:08:52.460Z,208.07
2018-12-02T01:11:24.948Z,211.37
2018-12-02T01:13:57.525Z,195.43
2018-12-02T01:16:30.072Z,196.47
2018-12-02T01:19:02.541Z,197.77
2018-12-02T01:21:37.262Z,210.93
2018-12-02T01:24:09.665Z,208.73
2018-12-02T01:26:42.076Z,209.93
2018-12-02T01:29:14.705Z,212.87
2018-12-02T01:31:47.222Z,213.13
2018-12-02T01:34:19.732Z,209.53
2018-12-02T01:36:52.231Z,212.10
2018-12-02T01:39:24.652Z,208.43
2018-12-02T01:41:57.319Z,229.23
2018-12-02T01:44:29.786Z,215.97
2018-12-02T01:47:02.190Z,228.33
2018-12-02T01:49:34.663Z,231.23
2018-12-02T01:52:07.790Z,241.13
2018-12-02T01:54:40.222Z,229.60
2018-12-02T01:57:12.793Z,243.70
2018-12-02T01:59:45.193Z,242.03
2018-12-02T02:02:17.670Z,245.90
2018-12-02T02:04:50.197Z,242.67
2018-12-02T02:07:22.612Z,233.20
2018-12-02T02:09:55.025Z,243.60
2018-12-02T02:12:27.511Z,227.43
2018-12-02T02:14:59.963Z,227.00
2018-12-02T02:17:32.488Z,229.73
2018-12-02T02:20:05.357Z,209.37
2018-12-02T02:22:37.992Z,204.93
2018-12-02T02:25:17.395Z,186.63
2018-12-02T02:27:54.885Z,206.53
2018-12-02T02:30:31.785Z,200.27
2018-12-02T02:33:04.209Z,210.93
2018-12-02T02:35:36.588Z,206.50
2018-12-02T02:38:09.552Z,209.63
2018-12-02T02:40:42.010Z,204.73
2018-12-02T02:43:14.423Z,195.37
2018-12-02T02:45:46.861Z,197.23
2018-12-02T02:48:19.256Z,198.20
2018-12-02T02:50:51.709Z,191.67
2018-12-02T02:53:24.135Z,192.67
2018-12-02T02:55:56.682Z,190.47
2018-12-02T02:58:29.059Z,193.60
2018-12-02T03:01:02.383Z,195.50
2018-12-02T03:03:35.720Z,191.03
2018-12-02T03:06:08.371Z,180.83
2018-12-02T03:08:40.749Z,172.93
2018-12-02T03:11:13.155Z,177.23
2018-12-02T03:13:46.085Z,166.93
2018-12-02T03:16:18.784Z,177.83
2018-12-02T03:18:51.153Z,183.33
2018-12-02T03:21:23.658Z,172.00
2018-12-02T03:23:56.181Z,158.33
2018-12-02T03:26:28.666Z,155.10
2018-12-02T03:29:01.093Z,157.80
2018-12-02T03:31:34.447Z,162.70
2018-12-02T03:34:06.928Z,152.07
2018-12-02T03:36:39.372Z,147.57
2018-12-02T03:39:11.856Z,151.97
2018-12-02T03:41:44.846Z,163.03
2018-12-02T03:44:17.669Z,192.97
2018-12-02T03:46:50.166Z,186.50
2018-12-02T03:49:22.601Z,181.07
2018-12-02T03:51:55.161Z,218.30
2018-12-02T03:54:27.535Z,170.70
2018-12-02T03:57:00.110Z,173.40
2018-12-02T03:59:32.499Z,163.47
2018-12-02T04:02:05.022Z,138.97
2018-12-02T04:04:37.483Z,123.80
2018-12-02T04:07:09.879Z,113.47
2018-12-02T04:09:42.235Z,108.20
2018-12-02T04:12:14.676Z,107.03
2018-12-02T04:14:47.067Z,104.53
2018-12-02T04:17:19.686Z,108.30
2018-12-02T04:19:53.005Z,107.57
2018-12-02T04:22:25.450Z,134.83
2018-12-02T04:24:57.836Z,149.23
2018-12-02T04:27:30.264Z,120.93
2018-12-02T04:30:02.678Z,100.20
2018-12-02T04:32:35.186Z,81.77
2018-12-02T04:35:09.511Z,84.33
2018-12-02T04:37:41.972Z,85.67
2018-12-02T04:40:15.652Z,80.57
2018-12-02T04:42:48.021Z,79.13
2018-12-02T04:45:23.337Z,85.53
2018-12-02T04:47:55.803Z,80.40
2018-12-02T04:50:28.411Z,80.57
2018-12-02T04:53:00.913Z,72.90
2018-12-02T04:55:33.303Z,76.47
2018-12-02T04:58:05.815Z,79.90
2018-12-02T05:00:38.192Z,85.23
2018-12-02T05:03:10.610Z,81.63
2018-12-02T05:05:43.019Z,77.43
2018-12-02T05:08:15.394Z,80.17
2018-12-02T05:10:47.798Z,81.17
2018-12-02T05:13:20.287Z,90.07
2018-12-02T05:15:52.666Z,76.97
2018-12-02T05:18:25.140Z,81.57
2018-12-02T05:20:57.637Z,90.23
2018-12-02T05:23:30.080Z,80.47
2018-12-02T05:26:02.559Z,88.47
2018-12-02T05:28:34.966Z,80.03
2018-12-02T05:31:07.653Z,80.57
2018-12-02T05:33:40.075Z,75.87
2018-12-02T05:36:12.560Z,83.67
2018-12-02T05:38:44.968Z,77.40
2018-12-02T05:41:17.435Z,81.10
2018-12-02T05:43:49.926Z,76.07
2018-12-02T05:46:24.395Z,86.93
2018-12-02T05:48:55.663Z,72.90
2018-12-02T05:51:28.116Z,90.00
2018-12-02T05:54:00.565Z,113.23
2018-12-02T05:56:32.970Z,102.03
2018-12-02T05:59:05.359Z,88.97
2018-12-02T06:01:37.745Z,83.67
2018-12-02T06:04:11.905Z,80.80
2018-12-02T06:06:44.459Z,91.37
2018-12-02T06:09:17.792Z,82.93
2018-12-02T06:11:50.343Z,61.10
2018-12-02T06:14:22.895Z,70.57
2018-12-02T06:16:55.295Z,73.27
2018-12-02T06:19:28.011Z,73.73
2018-12-02T06:22:00.432Z,69.73
2018-12-02T06:24:33.128Z,69.87
2018-12-02T06:27:05.538Z,70.77
2018-12-02T06:29:38.374Z,63.87
2018-12-02T06:32:12.292Z,65.90
2018-12-02T06:34:44.817Z,75.57
2018-12-02T06:37:17.190Z,93.97
2018-12-02T06:39:49.690Z,85.70
2018-12-02T11:32:07.058Z,55.53
2018-12-02T11:34:45.959Z,48.27
2018-12-02T11:37:23.411Z,40.97
2018-12-02T11:40:45.960Z,53.63
2018-12-02T11:42:33.780Z,54.17
2018-12-02T11:45:12.881Z,55.83
2018-12-02T11:48:16.611Z,51.97
2018-12-02T11:51:19.697Z,57.03
2018-12-02T11:53:53.135Z,54.57
2018-12-02T11:56:34.518Z,42.97
2018-12-02T11:59:17.256Z,55.77
2018-12-02T12:01:57.069Z,57.57
2018-12-02T12:04:29.573Z,51.87
2018-12-02T12:07:15.916Z,46.70
2018-12-02T12:10:03.448Z,47.97
2018-12-02T12:12:36.379Z,48.73
2018-12-02T12:15:20.637Z,46.60
2018-12-02T12:18:08.528Z,40.07
2018-12-02T12:20:48.339Z,45.80
2018-12-02T12:23:33.907Z,62.13
2018-12-02T12:26:15.958Z,60.17
2018-12-02T12:29:03.306Z,46.03
2018-12-02T12:31:35.954Z,49.13
2018-12-02T12:34:17.614Z,52.50
2018-12-02T12:36:57.510Z,79.50
2018-12-02T12:39:32.887Z,61.60
2018-12-02T12:42:08.676Z,53.10
2018-12-02T12:44:40.477Z,65.40
2018-12-02T12:47:13.367Z,52.83
2018-12-02T12:49:58.139Z,61.23
2018-12-02T12:52:45.221Z,66.97
2018-12-02T12:55:22.083Z,64.40
2018-12-02T12:57:59.348Z,51.70
2018-12-02T13:00:47.554Z,69.63
2018-12-02T13:03:20.301Z,65.80
2018-12-02T13:05:56.936Z,56.40
2018-12-02T13:08:29.551Z,52.17
2018-12-02T13:11:06.862Z,53.30
2018-12-02T13:13:55.361Z,51.53
2018-12-02T13:16:32.056Z,54.47
2018-12-02T13:19:02.584Z,58.13
2018-12-02T13:21:52.361Z,53.63
2018-12-02T13:24:25.760Z,60.33
2018-12-02T13:26:58.604Z,53.63
2018-12-02T13:29:31.115Z,59.67
2018-12-02T13:32:04.646Z,58.43
2018-12-02T13:34:37.237Z,60.53
2018-12-02T13:37:09.964Z,59.73
2018-12-02T13:39:42.522Z,51.80
2018-12-02T13:42:17.895Z,47.77
2018-12-02T13:44:49.808Z,59.53
2018-12-02T13:47:22.305Z,66.80
2018-12-02T13:50:01.407Z,50.90
2018-12-02T13:52:50.041Z,63.13
2018-12-02T13:55:35.066Z,76.60
2018-12-02T13:58:13.182Z,83.97
2018-12-02T14:00:46.196Z,116.17
2018-12-02T14:03:28.909Z,107.03
2018-12-02T14:06:07.673Z,96.20
2018-12-02T14:08:42.758Z,83.67
2018-12-02T14:11:22.141Z,82.20
2018-12-02T14:14:20.559Z,75.00
2018-12-02T14:17:25.057Z,82.43
2018-12-02T14:20:26.316Z,77.33
2018-12-02T14:23:11.685Z,135.03
2018-12-02T14:25:47.391Z,131.73
2018-12-02T14:28:28.259Z,99.80
2018-12-02T14:31:02.295Z,285.53
2018-12-02T14:33:40.249Z,115.50
2018-12-02T14:36:20.747Z,112.07
2018-12-02T14:38:56.832Z,159.57
2018-12-02T14:41:29.915Z,145.90
2018-12-02T14:44:02.869Z,88.10
2018-12-02T14:47:14.152Z,79.83
2018-12-02T14:50:17.542Z,72.23
2018-12-02T14:53:03.558Z,79.10
2018-12-02T14:55:36.282Z,76.37
2018-12-02T14:58:17.823Z,189.87
2018-12-02T15:01:15.322Z,125.63
2018-12-02T15:04:00.247Z,90.83
2018-12-02T15:06:33.963Z,60.37
2018-12-02T15:09:12.536Z,73.70
2018-12-02T15:11:45.837Z,58.43
2018-12-02T15:14:27.881Z,61.87
2018-12-02T15:17:03.642Z,67.07
2018-12-02T15:19:57.516Z,60.13
2018-12-02T15:22:36.896Z,69.47
2018-12-02T15:25:26.253Z,76.57
2018-12-02T15:28:01.067Z,75.57
2018-12-02T15:30:58.580Z,65.93
2018-12-02T15:33:59.787Z,74.47
2018-12-02T15:36:32.377Z,68.63
2018-12-02T15:39:36.081Z,80.67
2018-12-02T15:42:17.258Z,72.57
2018-12-02T15:44:50.003Z,63.93
2018-12-02T15:47:22.936Z,77.13
2018-12-02T15:49:55.649Z,77.33
2018-12-02T15:52:29.525Z,80.50
2018-12-02T15:55:02.871Z,88.33
2018-12-02T15:57:35.707Z,74.50
2018-12-02T16:00:33.468Z,65.10
2018-12-02T16:03:07.600Z,82.97
2018-12-02T16:05:41.279Z,78.53
2018-12-02T16:08:14.229Z,84.17
2018-12-02T16:10:46.964Z,77.50
2018-12-02T16:13:26.490Z,76.83
2018-12-02T16:16:00.395Z,83.33
2018-12-02T16:18:33.010Z,78.70
2018-12-02T16:21:08.538Z,90.73
2018-12-02T16:23:40.573Z,83.33
2018-12-02T16:26:13.296Z,90.93
2018-12-02T16:28:45.931Z,439.43
